Time;durP1;ratioP1;P1;durP2;ratioP2;P2;SDS_P1;SDS_P2;PMS_P1;PMS_P2;Temp;Humidity;BMP_temperature;BMP_pressure;BME280_temperature;BME280_humidity;BME280_pressure;Samples;Min_cycle;Max_cycle;Signal;HPM_P1;HPM_P2
2021/04/17 00:01:44;;;;;;;16.50;10.90;;;1.90;99.90;;;;;;4950070;28;20509;-79
2021/04/17 00:04:10;;;;;;;18.73;10.97;;;2.00;99.90;;;;;;4950884;28;20032;-79
2021/04/17 00:06:36;;;;;;;19.37;11.53;;;1.90;99.90;;;;;;4948855;28;20036;-78
2021/04/17 00:09:05;;;;;;;18.37;10.97;;;1.90;99.90;;;;;;4948118;28;20055;-78
2021/04/17 00:11:31;;;;;;;18.98;11.30;;;1.90;99.90;;;;;;4951382;28;20050;-79
2021/04/17 00:13:56;;;;;;;18.50;11.70;;;1.90;99.90;;;;;;4950209;28;20023;-79
2021/04/17 00:16:22;;;;;;;18.60;11.13;;;1.90;99.90;;;;;;4951332;28;20023;-78
2021/04/17 00:18:48;;;;;;;18.83;11.43;;;1.90;99.90;;;;;;4948201;28;20027;-79
2021/04/17 00:21:13;;;;;;;18.27;11.27;;;2.00;99.90;;;;;;4952542;28;20082;-78
2021/04/17 00:23:39;;;;;;;17.60;11.43;;;2.00;99.90;;;;;;4953666;29;20122;-79
2021/04/17 00:26:05;;;;;;;18.20;10.60;;;2.00;99.90;;;;;;4953469;28;20035;-78
2021/04/17 00:28:30;;;;;;;18.30;11.80;;;2.00;99.90;;;;;;4952519;28;20078;-78
2021/04/17 00:30:56;;;;;;;19.97;11.00;;;2.00;99.90;;;;;;4952892;28;20413;-79
2021/04/17 00:33:22;;;;;;;16.27;10.67;;;2.00;99.90;;;;;;4951757;29;20154;-78
2021/04/17 00:35:47;;;;;;;18.03;10.73;;;2.00;99.90;;;;;;4954358;28;20102;-79
2021/04/17 00:38:13;;;;;;;17.53;10.93;;;2.00;99.90;;;;;;4952875;29;20098;-77
2021/04/17 00:40:39;;;;;;;16.53;10.70;;;2.00;99.90;;;;;;4947364;28;20049;-79
2021/04/17 00:43:05;;;;;;;17.47;10.83;;;2.00;99.90;;;;;;4952818;28;20422;-78
2021/04/17 00:45:31;;;;;;;17.63;10.77;;;2.00;99.90;;;;;;4952557;28;20042;-78
2021/04/17 00:47:56;;;;;;;17.77;11.30;;;2.00;99.90;;;;;;4973222;28;20028;-80
2021/04/17 00:50:22;;;;;;;17.93;11.60;;;2.10;99.90;;;;;;4967213;28;20031;-77
2021/04/17 00:52:48;;;;;;;18.07;11.20;;;2.10;99.90;;;;;;4950530;28;20382;-79
2021/04/17 00:55:14;;;;;;;17.42;10.95;;;2.10;99.90;;;;;;4946085;29;20498;-79
2021/04/17 00:57:39;;;;;;;17.97;11.17;;;2.20;99.90;;;;;;4951971;28;20129;-78
2021/04/17 01:00:07;;;;;;;19.53;10.37;;;2.30;99.90;;;;;;4952211;28;20486;-78
2021/04/17 01:02:37;;;;;;;19.53;11.77;;;2.40;99.90;;;;;;4951842;28;20034;-78
2021/04/17 01:05:08;;;;;;;17.53;10.77;;;2.50;99.90;;;;;;4951245;28;20043;-79
2021/04/17 01:07:39;;;;;;;16.97;10.37;;;2.50;99.90;;;;;;4953662;28;20023;-78
2021/04/17 01:10:16;;;;;;;16.77;10.43;;;2.40;99.90;;;;;;4952903;28;20109;-77
2021/04/17 01:12:47;;;;;;;17.53;11.17;;;2.40;99.90;;;;;;4952610;28;20038;-78
2021/04/17 01:15:15;;;;;;;16.57;10.53;;;2.40;99.90;;;;;;4953141;28;20027;-78
2021/04/17 01:17:43;;;;;;;17.27;11.47;;;2.50;99.90;;;;;;4950893;28;20107;-79
2021/04/17 01:20:18;;;;;;;17.77;10.90;;;2.30;99.90;;;;;;4951898;28;20046;-77
2021/04/17 01:23:05;;;;;;;18.73;11.73;;;2.30;99.90;;;;;;4950421;29;20102;-78
2021/04/17 01:25:50;;;;;;;16.90;10.67;;;2.20;99.90;;;;;;4951788;28;20035;-78
2021/04/17 01:28:18;;;;;;;17.70;10.30;;;2.20;99.90;;;;;;4941511;28;20027;-77
2021/04/17 01:30:46;;;;;;;17.30;11.00;;;2.10;99.90;;;;;;4948779;28;20035;-79
2021/04/17 01:33:13;;;;;;;19.40;11.73;;;2.20;99.90;;;;;;4946520;29;20024;-79
2021/04/17 01:35:39;;;;;;;18.20;11.17;;;2.10;99.90;;;;;;4951173;28;20118;-78
2021/04/17 01:38:08;;;;;;;20.33;11.53;;;2.10;99.90;;;;;;4952551;28;20118;-78
2021/04/17 01:40:36;;;;;;;19.88;11.38;;;2.10;99.90;;;;;;4952007;28;20050;-78
2021/04/17 01:43:01;;;;;;;17.88;11.43;;;2.00;99.90;;;;;;4946487;28;20058;-78
2021/04/17 01:45:29;;;;;;;18.07;10.90;;;2.00;99.90;;;;;;4951172;28;20043;-78
2021/04/17 01:47:57;;;;;;;17.07;11.40;;;2.00;99.90;;;;;;4951448;29;20032;-79
2021/04/17 01:50:25;;;;;;;18.17;11.77;;;1.90;99.90;;;;;;4952967;28;20019;-78
2021/04/17 01:52:52;;;;;;;18.37;11.40;;;1.90;99.90;;;;;;4955771;28;20023;-79
2021/04/17 01:55:18;;;;;;;20.20;11.97;;;1.90;99.90;;;;;;4972282;28;20089;-79
2021/04/17 01:57:45;;;;;;;18.67;11.63;;;1.80;99.90;;;;;;4955025;28;20043;-77
2021/04/17 02:00:11;;;;;;;18.43;11.77;;;1.80;99.90;;;;;;4952662;28;20039;-78
2021/04/17 02:02:37;;;;;;;18.80;10.83;;;1.80;99.90;;;;;;4949740;28;20492;-78
2021/04/17 02:05:03;;;;;;;18.17;11.40;;;1.80;99.90;;;;;;4951919;29;20042;-78
2021/04/17 02:07:28;;;;;;;19.30;12.20;;;1.80;99.90;;;;;;4950249;28;20567;-78
2021/04/17 02:09:54;;;;;;;19.30;11.17;;;1.80;99.90;;;;;;4954515;28;20141;-78
2021/04/17 02:12:20;;;;;;;17.77;11.33;;;1.80;99.90;;;;;;4948654;28;20472;-77
2021/04/17 02:14:45;;;;;;;19.77;12.17;;;1.80;99.90;;;;;;4951663;28;20085;-78
2021/04/17 02:17:17;;;;;;;19.23;11.13;;;1.80;99.90;;;;;;4947124;28;20038;-77
2021/04/17 02:20:00;;;;;;;19.53;11.90;;;1.80;99.90;;;;;;4951327;28;20142;-78
2021/04/17 02:22:26;;;;;;;22.10;12.53;;;1.80;99.90;;;;;;4950725;28;20154;-78
2021/04/17 02:24:53;;;;;;;18.97;11.70;;;1.70;99.90;;;;;;4951446;28;20030;-78
2021/04/17 02:27:19;;;;;;;20.30;12.20;;;1.70;99.90;;;;;;4950422;28;20028;-79
2021/04/17 02:29:52;;;;;;;19.77;12.10;;;1.60;99.90;;;;;;4948769;28;20166;-77
2021/04/17 02:32:17;;;;;;;20.93;11.93;;;1.60;99.90;;;;;;4949955;28;20074;-78
2021/04/17 02:34:43;;;;;;;18.63;11.70;;;1.60;99.90;;;;;;4950813;28;20190;-78
2021/04/17 02:37:09;;;;;;;21.10;11.83;;;1.60;99.90;;;;;;4951178;28;20034;-79
2021/04/17 02:39:35;;;;;;;22.27;13.20;;;1.50;99.90;;;;;;4949626;28;20201;-79
2021/04/17 02:42:01;;;;;;;21.17;12.97;;;1.40;99.90;;;;;;4951257;28;20034;-79
2021/04/17 02:44:26;;;;;;;21.60;12.70;;;1.30;99.90;;;;;;4950664;29;20601;-78
2021/04/17 02:46:52;;;;;;;22.57;12.70;;;1.30;99.90;;;;;;4950017;28;20019;-80
2021/04/17 02:49:17;;;;;;;19.43;11.80;;;1.20;99.90;;;;;;4951225;29;20031;-79
2021/04/17 02:51:43;;;;;;;21.17;12.90;;;1.10;99.90;;;;;;4950153;28;20398;-79
2021/04/17 02:54:09;;;;;;;20.97;12.53;;;1.20;99.90;;;;;;4951122;29;20386;-79
2021/04/17 02:56:35;;;;;;;21.17;11.90;;;1.20;99.90;;;;;;4936725;28;20043;-78
2021/04/17 02:59:01;;;;;;;19.30;12.07;;;1.20;99.90;;;;;;4963454;28;20039;-78
2021/04/17 03:01:27;;;;;;;19.07;12.50;;;1.30;99.90;;;;;;4968765;28;20407;-78
2021/04/17 03:03:52;;;;;;;20.53;11.93;;;1.30;99.90;;;;;;4949599;28;20045;-79
2021/04/17 03:06:18;;;;;;;19.23;12.37;;;1.30;99.90;;;;;;4950659;29;20522;-78
2021/04/17 03:08:43;;;;;;;20.20;12.73;;;1.30;99.90;;;;;;4947854;28;20442;-79
2021/04/17 03:11:09;;;;;;;20.50;12.53;;;1.40;99.90;;;;;;4949260;28;20077;-78
2021/04/17 03:13:34;;;;;;;22.50;13.53;;;1.40;99.90;;;;;;4947649;28;20031;-79
2021/04/17 03:16:00;;;;;;;20.77;12.37;;;1.40;99.90;;;;;;4949104;28;20097;-79
2021/04/17 03:18:26;;;;;;;19.87;12.40;;;1.40;99.90;;;;;;4949742;28;20038;-78
2021/04/17 03:20:51;;;;;;;21.77;12.20;;;1.40;99.90;;;;;;4951023;29;20125;-79
2021/04/17 03:23:17;;;;;;;20.27;11.90;;;1.40;99.90;;;;;;4946581;29;20159;-79
2021/04/17 03:25:42;;;;;;;20.30;11.97;;;1.40;99.90;;;;;;4947980;28;20027;-78
2021/04/17 03:28:08;;;;;;;21.70;11.77;;;1.40;99.90;;;;;;4950668;28;20053;-78
2021/04/17 03:30:34;;;;;;;19.03;11.87;;;1.40;99.90;;;;;;4949248;28;20035;-78
2021/04/17 03:33:01;;;;;;;19.97;12.57;;;1.50;99.90;;;;;;4950162;28;20086;-79
2021/04/17 03:35:29;;;;;;;20.47;12.17;;;1.50;99.90;;;;;;4951275;28;20046;-78
2021/04/17 03:37:55;;;;;;;20.80;11.93;;;1.50;99.90;;;;;;4947713;28;20042;-79
2021/04/17 03:40:21;;;;;;;22.70;12.70;;;1.40;99.90;;;;;;4931678;29;20044;-79
2021/04/17 03:42:47;;;;;;;21.07;12.73;;;1.50;99.90;;;;;;4948383;28;20027;-79
2021/04/17 03:45:13;;;;;;;22.03;12.57;;;1.40;99.90;;;;;;4953681;29;20122;-79
2021/04/17 03:47:39;;;;;;;21.30;12.27;;;1.50;99.90;;;;;;4952980;28;20066;-79
2021/04/17 03:50:08;;;;;;;20.70;12.47;;;1.40;99.90;;;;;;4945518;28;20046;-79
2021/04/17 03:52:35;;;;;;;22.50;12.60;;;1.40;99.90;;;;;;4953716;28;20091;-80
2021/04/17 03:55:00;;;;;;;22.77;12.43;;;1.40;99.90;;;;;;4953632;28;20119;-79
2021/04/17 03:57:26;;;;;;;21.13;12.40;;;1.40;99.90;;;;;;4952641;29;20449;-79
2021/04/17 03:59:52;;;;;;;20.37;12.60;;;1.40;99.90;;;;;;4949530;28;20047;-79
2021/04/17 04:02:17;;;;;;;21.33;12.40;;;1.40;99.90;;;;;;4950985;29;20130;-80
2021/04/17 04:04:43;;;;;;;18.43;12.13;;;1.30;99.90;;;;;;4971902;28;20023;-79
2021/04/17 04:07:08;;;;;;;19.63;12.00;;;1.30;99.90;;;;;;4973239;28;20042;-79
2021/04/17 04:09:34;;;;;;;19.33;11.50;;;1.30;99.90;;;;;;4949519;28;20064;-78
2021/04/17 04:12:00;;;;;;;20.63;11.97;;;1.30;99.90;;;;;;4949151;28;20374;-79
2021/04/17 04:14:26;;;;;;;21.40;12.23;;;1.20;99.90;;;;;;4953815;28;20122;-80
2021/04/17 04:16:51;;;;;;;20.40;12.60;;;1.20;99.90;;;;;;4952618;29;20098;-79
2021/04/17 04:19:17;;;;;;;19.07;12.47;;;1.20;99.90;;;;;;4953449;29;20245;-79
2021/04/17 04:21:43;;;;;;;19.23;12.37;;;1.30;99.90;;;;;;4951607;28;20047;-79
2021/04/17 04:24:09;;;;;;;21.20;12.53;;;1.20;99.90;;;;;;4947918;29;20031;-80
2021/04/17 04:26:36;;;;;;;19.30;11.60;;;1.20;99.90;;;;;;4949190;28;20031;-78
2021/04/17 04:29:02;;;;;;;19.83;12.47;;;1.20;99.90;;;;;;4947426;28;20053;-79
2021/04/17 04:31:28;;;;;;;22.27;13.00;;;1.30;99.90;;;;;;4952697;28;20035;-78
2021/04/17 04:33:53;;;;;;;20.43;12.93;;;1.20;99.90;;;;;;4948726;28;20039;-78
2021/04/17 04:36:19;;;;;;;21.90;13.53;;;1.20;99.90;;;;;;4952701;28;20039;-78
2021/04/17 04:38:44;;;;;;;25.27;13.60;;;1.30;99.90;;;;;;4953632;29;20130;-79
2021/04/17 04:41:10;;;;;;;24.13;13.63;;;1.30;99.90;;;;;;4953210;28;20039;-79
2021/04/17 04:43:36;;;;;;;24.73;13.83;;;1.40;99.90;;;;;;4953187;29;20074;-79
2021/04/17 04:46:01;;;;;;;23.90;14.00;;;1.40;99.90;;;;;;4950414;28;20471;-79
2021/04/17 04:48:27;;;;;;;21.60;13.20;;;1.50;99.90;;;;;;4952851;29;20041;-79
2021/04/17 04:50:52;;;;;;;23.33;13.53;;;1.50;99.90;;;;;;4952183;28;20038;-79
2021/04/17 04:53:19;;;;;;;23.83;13.97;;;1.50;99.90;;;;;;4950836;29;20478;-79
2021/04/17 04:55:45;;;;;;;23.60;13.90;;;1.50;99.90;;;;;;4951278;28;20427;-79
2021/04/17 04:58:10;;;;;;;23.50;13.57;;;1.60;99.90;;;;;;4951918;28;20031;-78
2021/04/17 05:00:36;;;;;;;24.10;14.27;;;1.70;99.90;;;;;;4951786;28;20099;-80
2021/04/17 05:03:01;;;;;;;22.97;12.97;;;1.70;99.90;;;;;;4951916;28;20058;-78
2021/04/17 05:05:27;;;;;;;23.60;13.93;;;1.70;99.90;;;;;;4952882;28;20047;-79
2021/04/17 05:07:52;;;;;;;24.37;14.20;;;1.60;99.90;;;;;;4953447;28;20030;-79
2021/04/17 05:10:18;;;;;;;24.00;13.10;;;1.60;99.90;;;;;;4957610;29;20007;-82
2021/04/17 05:12:43;;;;;;;22.80;13.20;;;1.60;99.90;;;;;;4977179;28;20020;-79
2021/04/17 05:15:09;;;;;;;23.60;13.87;;;1.70;99.90;;;;;;4956007;28;20047;-77
2021/04/17 05:17:35;;;;;;;23.70;13.63;;;1.70;99.90;;;;;;4952225;29;20795;-79
2021/04/17 05:20:01;;;;;;;23.97;13.77;;;1.70;99.90;;;;;;4947623;28;20043;-78
2021/04/17 05:22:26;;;;;;;25.20;14.23;;;1.80;99.90;;;;;;4946126;29;20039;-78
2021/04/17 05:24:52;;;;;;;23.47;13.87;;;1.80;99.90;;;;;;4952293;28;20035;-80
2021/04/17 05:27:18;;;;;;;24.77;14.17;;;1.90;99.90;;;;;;4952089;28;20033;-79
2021/04/17 05:29:44;;;;;;;26.80;13.87;;;1.90;99.90;;;;;;4952740;28;20375;-79
2021/04/17 05:32:10;;;;;;;25.50;14.93;;;1.90;99.90;;;;;;4952292;28;20034;-77
2021/04/17 05:34:36;;;;;;;24.23;14.27;;;2.00;99.90;;;;;;4950869;28;20126;-78
2021/04/17 05:37:01;;;;;;;24.45;14.63;;;2.10;99.90;;;;;;4952276;28;20035;-78
2021/04/17 05:39:27;;;;;;;25.30;15.50;;;2.10;99.90;;;;;;4951400;28;20043;-78
2021/04/17 05:41:53;;;;;;;24.47;14.23;;;2.20;99.90;;;;;;4946288;28;20405;-78
2021/04/17 05:44:19;;;;;;;27.13;15.68;;;2.30;99.90;;;;;;4943114;28;20035;-79
2021/04/17 05:46:45;;;;;;;26.55;15.05;;;2.50;99.90;;;;;;4948645;29;20042;-80
2021/04/17 05:49:14;;;;;;;25.02;14.45;;;2.60;99.90;;;;;;4941759;29;20031;-78
2021/04/17 05:51:41;;;;;;;22.30;13.48;;;2.70;99.90;;;;;;4944548;28;20038;-79
2021/04/17 05:54:08;;;;;;;26.30;14.55;;;2.80;99.90;;;;;;4945840;28;20109;-79
2021/04/17 05:56:33;;;;;;;25.48;14.95;;;3.00;99.90;;;;;;4943232;29;20027;-79
2021/04/17 05:59:00;;;;;;;27.17;14.38;;;3.00;99.90;;;;;;4942106;28;20038;-78
2021/04/17 06:01:25;;;;;;;24.85;14.88;;;3.00;99.90;;;;;;4943195;28;20584;-79
2021/04/17 06:03:51;;;;;;;25.35;14.82;;;3.10;99.90;;;;;;4940376;29;20064;-79
2021/04/17 06:06:17;;;;;;;26.60;15.27;;;3.20;99.90;;;;;;4945759;28;20039;-78
2021/04/17 06:08:44;;;;;;;25.45;14.90;;;3.20;99.90;;;;;;4937716;29;20418;-78
2021/04/17 06:11:11;;;;;;;27.25;16.10;;;3.30;99.90;;;;;;4945475;28;20194;-78
2021/04/17 06:13:37;;;;;;;28.88;15.85;;;3.30;99.90;;;;;;4946352;28;20103;-77
2021/04/17 06:16:05;;;;;;;26.63;15.38;;;3.30;99.90;;;;;;4947964;28;20023;-80
2021/04/17 06:18:35;;;;;;;27.20;15.40;;;3.30;99.90;;;;;;4964898;28;20028;-77
2021/04/17 06:21:01;;;;;;;;;;;3.20;99.90;;;;;;4963827;28;20039;-78
2021/04/17 06:23:27;;;;;;;28.33;15.00;;;3.10;99.90;;;;;;4950528;28;19918;-79
2021/04/17 06:25:52;;;;;;;31.55;16.80;;;3.00;99.90;;;;;;4952135;28;20686;-79
2021/04/17 06:28:18;;;;;;;30.08;16.25;;;3.20;99.90;;;;;;4947057;28;20028;-78
2021/04/17 06:30:44;;;;;;;27.35;15.57;;;3.30;99.90;;;;;;4948877;28;20059;-79
2021/04/17 06:33:11;;;;;;;29.20;15.85;;;3.30;99.90;;;;;;4952516;29;20067;-78
2021/04/17 06:35:38;;;;;;;29.13;16.92;;;3.30;99.90;;;;;;4946738;28;20032;-78
2021/04/17 06:38:04;;;;;;;31.60;16.27;;;3.30;99.90;;;;;;4940939;28;20399;-77
2021/04/17 06:40:30;;;;;;;30.15;17.02;;;3.40;99.90;;;;;;4951880;28;20037;-79
2021/04/17 06:42:59;;;;;;;30.63;16.73;;;3.60;99.90;;;;;;4950066;28;20454;-78
2021/04/17 06:45:25;;;;;;;28.70;16.90;;;3.60;99.90;;;;;;4950273;28;20568;-78
2021/04/17 06:47:54;;;;;;;27.45;16.10;;;3.70;99.90;;;;;;4950140;28;20046;-78
2021/04/17 06:50:20;;;;;;;28.77;17.10;;;3.80;99.90;;;;;;4949494;28;20134;-76
2021/04/17 06:52:47;;;;;;;29.10;17.25;;;3.90;99.90;;;;;;4945523;28;20086;-78
2021/04/17 06:55:13;;;;;;;30.90;17.73;;;4.00;99.90;;;;;;4950781;28;20549;-76
2021/04/17 06:57:40;;;;;;;31.58;17.65;;;3.70;99.90;;;;;;4951176;29;20034;-78
2021/04/17 07:00:10;;;;;;;29.92;17.08;;;3.60;99.90;;;;;;4948517;28;20061;-79
2021/04/17 07:02:37;;;;;;;;;;;3.70;99.90;;;;;;4952238;28;20066;-77
2021/04/17 07:05:04;;;;;;;32.55;18.25;;;3.90;99.90;;;;;;4949309;28;19953;-79
2021/04/17 07:07:31;;;;;;;29.33;16.13;;;3.90;99.90;;;;;;4950945;29;20170;-77
2021/04/17 07:09:56;;;;;;;28.80;16.35;;;3.80;99.90;;;;;;4950157;29;20375;-77
2021/04/17 07:12:22;;;;;;;33.10;18.10;;;3.70;99.90;;;;;;4950870;28;20034;-78
2021/04/17 07:14:50;;;;;;;29.33;16.75;;;3.50;99.90;;;;;;4947420;28;20033;-77
2021/04/17 07:17:16;;;;;;;31.83;18.27;;;3.40;99.90;;;;;;4949596;28;20089;-77
2021/04/17 07:19:51;;;;;;;30.10;16.33;;;3.50;99.90;;;;;;4948552;28;20122;-78
2021/04/17 07:22:28;;;;;;;31.95;17.80;;;3.60;99.90;;;;;;4950929;28;20075;-81
2021/04/17 07:25:06;;;;;;;30.80;16.48;;;3.50;99.90;;;;;;4959368;29;20086;-77
2021/04/17 07:27:40;;;;;;;31.52;16.95;;;3.40;99.90;;;;;;4962000;29;20119;-79
2021/04/17 07:30:08;;;;;;;33.53;18.58;;;3.40;99.90;;;;;;4955805;29;20043;-81
2021/04/17 07:32:35;;;;;;;36.60;19.35;;;3.40;99.90;;;;;;4957408;28;21871;-81
2021/04/17 07:35:04;;;;;;;36.67;19.73;;;3.40;99.90;;;;;;4956589;28;20031;-80
2021/04/17 07:37:29;;;;;;;36.30;20.48;;;3.50;99.90;;;;;;4953258;29;20463;-82
2021/04/17 07:39:55;;;;;;;35.25;19.17;;;3.60;99.90;;;;;;4953533;28;20275;-82
2021/04/17 07:42:20;;;;;;;34.47;18.20;;;3.50;99.90;;;;;;4952097;28;20039;-81
2021/04/17 07:44:48;;;;;;;33.28;19.15;;;3.40;99.90;;;;;;4954383;28;20053;-81
2021/04/17 07:47:33;;;;;;;37.22;19.65;;;3.50;99.90;;;;;;4955682;28;20041;-82
2021/04/17 07:50:05;;;;;;;34.80;20.27;;;3.60;99.90;;;;;;4950829;29;20073;-81
2021/04/17 07:52:35;;;;;;;37.25;20.67;;;3.80;99.90;;;;;;4955209;28;20130;-79
2021/04/17 07:55:05;;;;;;;37.33;19.55;;;3.90;99.90;;;;;;4956341;28;20027;-82
2021/04/17 07:57:45;;;;;;;35.45;19.63;;;4.00;99.90;;;;;;4956113;28;20039;-80
2021/04/17 08:00:16;;;;;;;34.65;18.13;;;4.10;99.90;;;;;;4954535;28;20122;-80
2021/04/17 08:02:46;;;;;;;34.55;18.40;;;4.10;99.90;;;;;;4946925;28;20043;-82
2021/04/17 08:05:13;;;;;;;35.15;19.70;;;3.70;99.90;;;;;;4955327;28;20023;-81
2021/04/17 08:07:39;;;;;;;29.45;16.50;;;3.90;99.90;;;;;;4954266;28;20089;-80
2021/04/17 08:10:06;;;;;;;30.08;17.20;;;3.60;99.90;;;;;;4954769;28;20031;-82
2021/04/17 08:12:37;;;;;;;31.35;18.20;;;3.50;99.90;;;;;;4951591;28;20035;-82
2021/04/17 08:15:10;;;;;;;31.00;18.95;;;3.70;99.90;;;;;;4964304;28;20023;-84
2021/04/17 08:17:40;;;;;;;33.25;19.77;;;4.00;99.90;;;;;;4963942;28;20430;-82
2021/04/17 08:20:08;;;;;;;32.25;19.42;;;4.20;99.90;;;;;;4956597;28;20066;-79
2021/04/17 08:22:34;;;;;;;32.78;19.38;;;4.30;99.90;;;;;;4956867;28;20047;-81
2021/04/17 08:25:00;;;;;;;31.08;19.92;;;4.30;99.90;;;;;;4957555;28;20031;-81
2021/04/17 08:27:30;;;;;;;35.78;21.20;;;4.40;99.90;;;;;;4956829;28;20054;-81
2021/04/17 08:29:57;;;;;;;38.97;21.42;;;4.60;99.90;;;;;;4980870;28;20034;-84
2021/04/17 08:32:29;;;;;;;32.63;20.75;;;4.70;99.90;;;;;;4971219;28;20035;-79
2021/04/17 08:35:00;;;;;;;31.02;19.88;;;4.60;99.90;;;;;;4957273;28;20046;-83
2021/04/17 08:37:26;;;;;;;34.00;20.20;;;4.50;99.90;;;;;;4956567;28;20042;-84
2021/04/17 08:39:55;;;;;;;32.08;19.83;;;4.60;99.90;;;;;;4954056;29;20059;-82
2021/04/17 08:42:47;;;;;;;30.23;19.85;;;4.50;99.90;;;;;;4952241;28;20139;-79
2021/04/17 08:45:17;;;;;;;28.63;18.05;;;4.70;99.90;;;;;;4952446;29;20443;-80
2021/04/17 08:47:51;;;;;;;30.55;18.95;;;4.80;99.90;;;;;;4953213;28;20082;-78
2021/04/17 08:50:34;;;;;;;29.55;18.65;;;4.70;99.90;;;;;;4953644;28;20039;-78
2021/04/17 08:53:12;;;;;;;30.83;17.70;;;4.50;99.90;;;;;;4953570;28;20082;-77
2021/04/17 08:55:38;;;;;;;25.10;16.65;;;4.60;99.90;;;;;;4946657;29;20037;-78
2021/04/17 08:58:18;;;;;;;25.88;16.75;;;4.70;99.90;;;;;;4953629;29;20027;-77
2021/04/17 09:01:04;;;;;;;25.42;15.95;;;4.60;99.90;;;;;;4953687;28;20158;-79
2021/04/17 09:03:43;;;;;;;27.55;15.57;;;4.60;99.90;;;;;;4953051;28;20182;-77
2021/04/17 09:06:29;;;;;;;26.73;15.60;;;4.60;99.90;;;;;;4953145;28;20682;-79
2021/04/17 09:09:17;;;;;;;24.90;16.23;;;4.70;99.90;;;;;;4938609;29;20047;-78
2021/04/17 09:11:44;;;;;;;21.65;14.80;;;4.50;99.90;;;;;;4945725;28;20124;-81
2021/04/17 09:14:32;;;;;;;21.27;13.95;;;4.60;99.90;;;;;;4953355;28;20063;-81
2021/04/17 09:17:06;;;;;;;22.70;15.10;;;4.70;99.90;;;;;;4947661;28;20026;-82
2021/04/17 09:19:38;;;;;;;25.25;15.45;;;4.70;99.90;;;;;;4953623;28;20039;-79
2021/04/17 09:22:24;;;;;;;23.30;15.57;;;5.00;99.90;;;;;;4953175;29;20569;-82
2021/04/17 09:24:54;;;;;;;24.73;15.68;;;5.20;99.90;;;;;;4939875;29;20050;-81
2021/04/17 09:27:28;;;;;;;24.45;16.23;;;5.10;99.90;;;;;;4950678;28;20549;-80
2021/04/17 09:29:57;;;;;;;17.65;11.13;;;5.00;99.90;;;;;;4951726;29;20026;-83
2021/04/17 09:32:30;;;;;;;14.13;9.27;;;4.90;99.90;;;;;;4955285;28;20039;-79
2021/04/17 09:34:56;;;;;;;14.73;9.85;;;4.90;99.90;;;;;;4952291;28;20279;-82
2021/04/17 09:37:24;;;;;;;16.45;10.20;;;5.10;99.90;;;;;;4955118;28;20039;-81
2021/04/17 09:39:50;;;;;;;14.17;9.50;;;5.20;99.90;;;;;;4956866;28;20145;-88
2021/04/17 09:42:27;;;;;;;14.80;9.82;;;5.50;99.90;;;;;;4961062;28;20106;-88
2021/04/17 09:44:52;;;;;;;15.07;10.70;;;5.50;99.90;;;;;;4952679;28;20038;-84
2021/04/17 09:47:18;;;;;;;18.40;10.70;;;5.70;99.90;;;;;;4953478;29;20027;-82
2021/04/17 09:49:46;;;;;;;16.33;11.70;;;5.70;99.90;;;;;;4951304;28;20506;-81
2021/04/17 09:52:17;;;;;;;18.20;11.40;;;5.50;99.90;;;;;;4954094;29;20114;-82
2021/04/17 09:54:44;;;;;;;13.57;9.07;;;5.50;99.90;;;;;;4946061;28;20083;-80
2021/04/17 09:57:10;;;;;;;14.30;9.35;;;5.10;99.90;;;;;;4950418;28;20047;-80
2021/04/17 09:59:36;;;;;;;14.57;9.65;;;5.00;99.90;;;;;;4949932;29;20529;-80
2021/04/17 10:02:03;;;;;;;15.77;10.45;;;4.90;99.90;;;;;;4950115;28;20118;-82
2021/04/17 10:04:59;;;;;;;15.30;10.82;;;5.10;99.90;;;;;;4952307;28;20023;-80
2021/04/17 10:07:25;;;;;;;16.10;9.98;;;5.40;99.90;;;;;;4946056;28;20166;-79
2021/04/17 10:10:02;;;;;;;15.82;9.88;;;5.80;99.90;;;;;;4949423;28;20036;-82
2021/04/17 10:12:28;;;;;;;13.75;9.50;;;5.80;99.90;;;;;;4952311;28;20034;-77
2021/04/17 10:15:17;;;;;;;15.38;10.20;;;6.10;99.90;;;;;;4948364;28;20028;-84
2021/04/17 10:17:43;;;;;;;13.50;9.38;;;6.50;99.90;;;;;;4952486;28;20119;-86
2021/04/17 10:20:11;;;;;;;14.50;9.82;;;6.80;99.90;;;;;;4955100;29;20063;-90
2021/04/17 10:22:36;;;;;;;14.60;8.75;;;7.00;99.90;;;;;;4953190;29;20051;-86
2021/04/17 10:25:03;;;;;;;13.63;9.27;;;6.60;99.90;;;;;;4953578;29;20058;-86
2021/04/17 10:27:34;;;;;;;12.07;7.88;;;6.60;99.90;;;;;;4950162;28;20469;-81
2021/04/17 10:29:59;;;;;;;14.88;8.27;;;6.10;99.90;;;;;;4943759;28;20035;-80
2021/04/17 10:32:31;;;;;;;13.68;8.43;;;5.90;99.90;;;;;;4950517;28;20043;-81
2021/04/17 10:34:59;;;;;;;13.77;8.45;;;6.10;99.90;;;;;;4951900;29;20035;-92
2021/04/17 10:37:26;;;;;;;15.38;8.73;;;6.20;99.90;;;;;;4952321;28;20046;-83
2021/04/17 10:40:04;;;;;;;13.52;8.40;;;6.30;99.90;;;;;;4961980;29;20143;-84
2021/04/17 10:43:01;;;;;;;14.52;6.90;;;6.30;99.90;;;;;;4960732;29;20034;-84
2021/04/17 10:45:30;;;;;;;13.23;8.18;;;6.30;99.90;;;;;;4956096;29;20102;-81
2021/04/17 10:48:09;;;;;;;12.00;7.47;;;6.40;99.90;;;;;;4952871;29;20023;-86
2021/04/17 10:50:41;;;;;;;12.82;7.35;;;6.60;99.90;;;;;;4953176;28;20039;-87
2021/04/17 10:53:11;;;;;;;10.73;7.30;;;6.70;99.90;;;;;;4955729;29;20552;-85
2021/04/17 10:55:45;;;;;;;11.82;7.03;;;7.10;99.90;;;;;;4953286;28;20036;-80
2021/04/17 10:58:26;;;;;;;12.88;7.78;;;7.10;99.90;;;;;;4969832;28;20031;-85
2021/04/17 11:01:11;;;;;;;12.45;7.43;;;7.20;99.90;;;;;;4974292;28;20075;-84
2021/04/17 11:03:47;;;;;;;12.20;8.10;;;6.40;99.90;;;;;;4968822;29;20028;-84
2021/04/17 11:06:25;;;;;;;12.05;7.68;;;6.20;99.90;;;;;;4954298;28;20066;-85
2021/04/17 11:09:12;;;;;;;11.23;7.35;;;6.80;99.90;;;;;;4950752;29;20049;-83
2021/04/17 11:11:50;;;;;;;10.63;7.43;;;7.30;99.90;;;;;;4943972;29;20382;-81
2021/04/17 11:14:20;;;;;;;10.32;6.70;;;7.70;99.90;;;;;;4949570;29;20043;-81
2021/04/17 11:16:46;;;;;;;14.73;7.25;;;7.80;99.90;;;;;;4946140;28;20030;-83
2021/04/17 11:19:28;;;;;;;11.13;7.28;;;7.60;99.90;;;;;;4951251;28;20122;-82
2021/04/17 11:22:13;;;;;;;11.68;7.28;;;7.10;99.90;;;;;;4946350;29;20127;-81
2021/04/17 11:24:59;;;;;;;10.88;7.25;;;7.00;99.90;;;;;;4951236;29;20110;-80
2021/04/17 11:27:26;;;;;;;10.73;6.82;;;7.10;99.90;;;;;;4951646;28;20509;-82
2021/04/17 11:29:52;;;;;;;10.80;6.88;;;7.30;99.90;;;;;;4948029;29;20031;-83
2021/04/17 11:32:18;;;;;;;13.70;7.07;;;7.30;99.90;;;;;;4947738;29;20027;-82
2021/04/17 11:34:45;;;;;;;13.43;8.02;;;7.30;99.90;;;;;;4950225;28;20505;-81
2021/04/17 11:37:13;;;;;;;10.55;7.13;;;7.30;99.90;;;;;;4947882;28;20031;-84
2021/04/17 11:39:39;;;;;;;13.27;7.82;;;7.40;99.90;;;;;;4948626;28;20407;-79
2021/04/17 11:42:06;;;;;;;11.30;7.45;;;7.20;99.90;;;;;;4947453;28;20031;-80
2021/04/17 11:44:32;;;;;;;12.48;8.38;;;7.10;99.90;;;;;;4950804;29;20076;-78
2021/04/17 11:46:58;;;;;;;10.68;6.78;;;6.80;99.90;;;;;;4954583;28;20070;-80
2021/04/17 11:49:24;;;;;;;12.63;7.80;;;6.70;99.90;;;;;;4951510;28;20023;-79
2021/04/17 11:51:51;;;;;;;12.43;7.47;;;6.60;99.90;;;;;;4950815;28;20122;-79
2021/04/17 11:54:16;;;;;;;11.88;7.28;;;6.90;99.90;;;;;;4949828;29;20027;-81
2021/04/17 11:56:42;;;;;;;10.57;7.43;;;7.10;99.90;;;;;;4950924;29;20042;-79
2021/04/17 11:59:07;;;;;;;11.23;7.00;;;7.00;99.90;;;;;;4950241;28;20122;-80
2021/04/17 12:01:35;;;;;;;12.02;7.40;;;6.70;99.90;;;;;;4944556;29;20036;-80
2021/04/17 12:04:00;;;;;;;10.65;7.28;;;6.80;99.90;;;;;;4948855;28;20486;-77
2021/04/17 12:06:29;;;;;;;9.52;6.40;;;6.80;99.90;;;;;;4946724;29;20115;-78
2021/04/17 12:08:58;;;;;;;11.03;7.13;;;6.50;99.90;;;;;;4949837;28;20023;-79
2021/04/17 12:11:25;;;;;;;12.45;7.68;;;6.60;99.90;;;;;;4950329;28;20039;-77
2021/04/17 12:13:51;;;;;;;11.70;7.22;;;6.60;99.90;;;;;;4946793;29;20030;-78
2021/04/17 12:16:18;;;;;;;12.95;7.65;;;6.40;99.90;;;;;;4951008;29;20043;-79
2021/04/17 12:18:44;;;;;;;14.40;7.18;;;6.60;99.90;;;;;;4954733;28;20137;-79
2021/04/17 12:21:09;;;;;;;12.88;7.38;;;6.50;99.90;;;;;;4950897;28;20035;-80
2021/04/17 12:23:35;;;;;;;12.98;8.90;;;6.50;99.90;;;;;;4948298;29;20039;-80
2021/04/17 12:26:00;;;;;;;14.57;8.50;;;6.50;99.90;;;;;;4950111;29;20490;-80
2021/04/17 12:28:26;;;;;;;12.60;8.40;;;6.60;99.90;;;;;;4950777;29;20027;-78
2021/04/17 12:30:55;;;;;;;15.40;8.93;;;6.70;99.90;;;;;;4953904;28;20042;-79
2021/04/17 12:33:22;;;;;;;15.45;9.77;;;6.70;99.90;;;;;;4953472;28;20046;-80
2021/04/17 12:35:48;;;;;;;15.55;10.20;;;6.70;99.90;;;;;;4953566;28;20031;-79
2021/04/17 12:38:14;;;;;;;13.60;7.15;;;6.70;99.90;;;;;;4953059;28;20077;-80
2021/04/17 12:40:40;;;;;;;14.82;10.35;;;6.40;99.90;;;;;;4950383;28;20486;-80
2021/04/17 12:43:07;;;;;;;16.85;11.05;;;6.40;99.90;;;;;;4952429;29;20071;-79
2021/04/17 12:45:34;;;;;;;17.77;10.38;;;6.40;99.90;;;;;;4953344;28;20094;-80
2021/04/17 12:48:00;;;;;;;15.75;11.07;;;6.20;99.90;;;;;;4954188;28;20390;-79